Aérodrome :
LOGIN :

S'inscrire | Disclaimer

   EN    FR    IT 

 










Légende :    VFR   VFR Marginal   IFR   IFR Intensif   IFR Très Intensif
Visi : 
Plafond : 
>= 8 km
>= 3000ft
5 à 8 km
1000 à 3000 ft
1500m à 5 km
500 à 1000 ft
800 à 1500m
200 à 500 ft
< 800m
< 200 ft
Symboles :   Orages  Brouillard  Fortes neiges  Fortes précipitations  Vent > 20 kt
SIGMETs :   Divers  Orages  Givrage  Turbulence  Onde Orograph.  Cendres Volcan.







- Altitude de l'aérodrome : 82 ft
- Code IATA : QIE
- Voir les cartes d'approche


LFMI - Istres

DERNIER METAR :
  • 230830Z AUTO 30015KT CAVOK 19/12 Q1016 NOSIG

METARs EXPIRÉS :
  • 230800Z AUTO 29016KT CAVOK 19/13 Q1016 NOSIG
  • 230730Z AUTO 29014KT CAVOK 18/13 Q1016 NOSIG
  • 230700Z AUTO 29013KT CAVOK 17/13 Q1016 NOSIG
  • 230630Z AUTO 30011KT CAVOK 16/13 Q1016 NOSIG
  • 230600Z AUTO 30011KT CAVOK 15/13 Q1016 NOSIG

TAF TAF LFMI
Valide du 23 à 09h jusqu'au 24 à 09h UTC


230800Z 2309/2409 30010KT CAVOK
BECMG 2309/2310 32020KT
BECMG 2314/2316 32010KT
BECMG 2400/2402 VRB03KT
Pas de NOTAMs connus pour ce terrain.



MET'MAP, la Météo Aéronautique d'un coup d'oeil ! - Copyright ORBIFLY Décembre 2007 - Disclaimer

ORBIFLY MET'MAP TEAM :

Programmation & Développement : Alexandra Zaïnal
Conception & Développement : Baudouin d'Aumeries
Co-Programmation & Développement : Marc-Olivier Méhu
Soutien technique & logistique : Manuel Goepfert

Contact : metmap@orbifly.com




SOURCES & CREDITS :

   NOAA